createdAt,value
2018-03-03T00:00:58.363Z,54.42
2018-03-03T00:03:26.160Z,57.35
2018-03-03T00:05:54.004Z,53.75
2018-03-03T00:08:21.790Z,44.72
2018-03-03T00:10:50.350Z,59.13
2018-03-03T00:13:18.162Z,55.55
2018-03-03T00:15:45.921Z,75.70
2018-03-03T00:18:13.731Z,49.55
2018-03-03T00:20:42.359Z,43.80
2018-03-03T00:23:10.133Z,54.42
2018-03-03T00:25:37.903Z,63.85
2018-03-03T00:28:05.743Z,62.17
2018-03-03T00:30:33.658Z,55.67
2018-03-03T00:33:01.427Z,40.80
2018-03-03T00:35:29.261Z,69.30
2018-03-03T00:37:57.030Z,54.85
2018-03-03T00:40:24.793Z,58.53
2018-03-03T00:42:52.632Z,59.42
2018-03-03T00:45:20.401Z,62.75
2018-03-03T00:47:48.181Z,55.75
2018-03-03T00:50:16.016Z,48.38
2018-03-03T00:52:43.797Z,37.58
2018-03-03T00:55:11.566Z,56.63
2018-03-03T00:57:39.395Z,52.58
2018-03-03T01:00:07.174Z,67.35
2018-03-03T01:02:34.941Z,46.30
2018-03-03T01:05:02.765Z,63.30
2018-03-03T01:07:31.298Z,34.08
2018-03-03T01:09:59.061Z,48.90
2018-03-03T01:12:26.926Z,56.95
2018-03-03T01:14:54.699Z,62.03
2018-03-03T01:17:22.501Z,53.50
2018-03-03T01:19:51.097Z,72.93
2018-03-03T01:22:18.861Z,53.65
2018-03-03T01:24:46.624Z,35.28
2018-03-03T01:27:14.450Z,51.35
2018-03-03T01:29:42.214Z,21.35
2018-03-03T01:32:10.762Z,39.85
2018-03-03T01:34:38.582Z,58.10
2018-03-03T01:37:06.357Z,29.37
2018-03-03T01:39:34.122Z,41.47
2018-03-03T01:42:01.943Z,52.08
2018-03-03T01:44:29.730Z,66.65
2018-03-03T01:46:57.517Z,61.88
2018-03-03T01:49:25.364Z,33.13
2018-03-03T01:51:53.125Z,62.42
2018-03-03T01:54:20.885Z,59.85
2018-03-03T01:56:48.704Z,44.15
2018-03-03T01:59:16.501Z,51.67
2018-03-03T02:01:44.281Z,45.53
2018-03-03T02:04:12.112Z,46.40
2018-03-03T02:06:40.652Z,61.83
2018-03-03T02:09:08.443Z,26.35
2018-03-03T02:11:36.318Z,43.20
2018-03-03T02:14:04.845Z,47.30
2018-03-03T02:16:32.605Z,58.30
2018-03-03T02:19:00.450Z,37.70
2018-03-03T02:21:28.265Z,55.17
2018-03-03T02:23:56.054Z,57.03
2018-03-03T02:26:24.636Z,58.15
2018-03-03T02:28:53.166Z,36.08
2018-03-03T02:31:20.931Z,41.13
2018-03-03T02:33:48.754Z,52.88
2018-03-03T02:36:16.526Z,51.00
2018-03-03T02:38:44.299Z,55.58
2018-03-03T02:41:12.127Z,52.25
2018-03-03T02:43:40.666Z,59.38
2018-03-03T02:46:08.439Z,39.55
2018-03-03T02:48:36.265Z,63.40
2018-03-03T02:51:04.026Z,60.85
2018-03-03T02:53:31.791Z,68.00
2018-03-03T02:55:59.606Z,45.63
2018-03-03T02:58:27.390Z,64.97
2018-03-03T03:00:55.154Z,36.28
2018-03-03T03:03:22.973Z,63.10
2018-03-03T03:05:50.741Z,47.13
2018-03-03T03:08:18.511Z,53.10
2018-03-03T03:10:46.337Z,52.53
2018-03-03T03:13:14.101Z,65.28
2018-03-03T03:15:41.870Z,56.33
2018-03-03T03:18:09.691Z,59.42
2018-03-03T03:20:37.462Z,49.40
2018-03-03T03:23:05.224Z,35.95
2018-03-03T03:25:33.057Z,72.70
2018-03-03T03:28:01.593Z,39.55
2018-03-03T03:30:29.358Z,45.63
2018-03-03T03:32:57.196Z,36.30
2018-03-03T03:35:24.957Z,71.35
2018-03-03T03:37:52.722Z,65.32
2018-03-03T03:40:20.538Z,77.75
2018-03-03T03:42:48.301Z,50.70
2018-03-03T03:45:16.064Z,43.97
2018-03-03T03:47:43.906Z,51.40
2018-03-03T03:50:11.680Z,48.90
2018-03-03T03:52:39.450Z,51.42
2018-03-03T03:55:07.269Z,47.20
2018-03-03T03:57:35.048Z,53.30
2018-03-03T04:00:02.821Z,40.00
2018-03-03T04:02:31.013Z,49.05
2018-03-03T04:04:59.549Z,46.70
2018-03-03T04:07:27.329Z,59.97
2018-03-03T04:09:55.148Z,53.60
2018-03-03T04:12:22.916Z,50.45
2018-03-03T04:14:50.682Z,64.47
2018-03-03T04:17:18.501Z,51.30
2018-03-03T04:19:46.269Z,49.95
2018-03-03T04:22:14.802Z,41.30
2018-03-03T04:24:42.620Z,37.63
2018-03-03T04:27:11.151Z,43.92
2018-03-03T04:29:38.917Z,54.38
2018-03-03T04:32:06.753Z,40.30
2018-03-03T04:34:34.521Z,39.60
2018-03-03T04:37:02.286Z,49.65
2018-03-03T04:39:30.100Z,61.40
2018-03-03T04:41:57.862Z,47.13
2018-03-03T04:44:25.619Z,36.55
2018-03-03T04:46:53.445Z,49.67
2018-03-03T04:49:21.209Z,44.83
2018-03-03T04:51:48.983Z,26.02
2018-03-03T04:54:16.810Z,31.85
2018-03-03T04:56:44.580Z,47.75
2018-03-03T05:12:40.365Z,48.65
2018-03-03T05:15:10.802Z,34.30
2018-03-03T05:17:52.362Z,41.33
2018-03-03T05:34:09.305Z,63.97
2018-03-03T05:36:43.465Z,71.50
2018-03-03T05:39:26.807Z,63.50
2018-03-03T05:42:00.332Z,60.90
2018-03-03T05:44:45.879Z,48.30
2018-03-03T05:47:19.625Z,46.45
2018-03-03T05:50:03.317Z,54.80
2018-03-03T05:52:36.649Z,68.10
2018-03-03T05:55:10.209Z,45.70
2018-03-03T05:57:48.677Z,64.62
2018-03-03T06:00:32.186Z,62.15
2018-03-03T06:03:18.653Z,42.92
2018-03-03T06:06:01.341Z,76.72
2018-03-03T06:08:45.669Z,45.20
2018-03-03T06:11:13.490Z,51.53
2018-03-03T06:13:41.255Z,53.03
2018-03-03T06:16:09.019Z,46.50
2018-03-03T06:18:36.855Z,68.55
2018-03-03T06:21:04.652Z,44.40
2018-03-03T06:23:32.406Z,61.03
2018-03-03T06:26:00.213Z,58.53
2018-03-03T06:28:27.962Z,77.90
2018-03-03T06:30:55.779Z,58.10
2018-03-03T06:33:23.687Z,57.55
2018-03-03T06:35:52.202Z,65.53
2018-03-03T06:38:20.725Z,55.38
2018-03-03T06:40:48.525Z,74.03
2018-03-03T06:43:16.278Z,51.25
2018-03-03T06:45:44.031Z,48.60
2018-03-03T06:48:11.844Z,60.72
2018-03-03T06:50:39.717Z,63.42
2018-03-03T06:53:07.467Z,46.83
2018-03-03T06:55:35.291Z,56.42
2018-03-03T06:58:03.638Z,61.92
2018-03-03T07:00:31.389Z,60.92
2018-03-03T07:02:59.198Z,69.25
2018-03-03T07:05:26.953Z,42.88
2018-03-03T07:07:54.701Z,39.38
2018-03-03T07:10:22.507Z,55.72
2018-03-03T07:12:50.262Z,62.03
2018-03-03T07:15:21.462Z,53.53
2018-03-03T07:17:49.272Z,50.95
2018-03-03T07:20:17.051Z,72.57
2018-03-03T07:22:44.847Z,60.92
2018-03-03T07:25:12.653Z,57.08
2018-03-03T07:27:41.184Z,56.95
2018-03-03T07:30:08.943Z,72.57
2018-03-03T07:32:36.748Z,71.70
2018-03-03T07:35:05.267Z,57.35
2018-03-03T07:37:33.009Z,49.47
2018-03-03T07:40:00.817Z,60.75
2018-03-03T07:42:28.583Z,56.13
2018-03-03T07:44:57.132Z,59.80
2018-03-03T07:47:24.936Z,62.45
2018-03-03T07:49:52.689Z,67.90
2018-03-03T07:52:20.444Z,54.53
2018-03-03T07:54:48.246Z,64.07
2018-03-03T07:57:16.764Z,58.92
2018-03-03T07:59:44.518Z,54.08
2018-03-03T08:02:12.330Z,67.65
2018-03-03T08:04:40.082Z,50.63
2018-03-03T08:07:07.834Z,57.62
2018-03-03T08:09:36.414Z,61.17
2018-03-03T08:12:04.173Z,58.80
2018-03-03T08:14:31.930Z,134.35
2018-03-03T08:16:59.740Z,51.25
2018-03-03T08:19:28.264Z,46.50
2018-03-03T08:21:56.022Z,47.67
2018-03-03T08:24:23.850Z,49.25
2018-03-03T08:26:52.382Z,43.53
2018-03-03T08:29:20.142Z,48.95
2018-03-03T08:31:47.942Z,47.72
2018-03-03T08:34:15.698Z,43.17
2018-03-03T08:36:43.446Z,51.63
2018-03-03T08:39:11.245Z,45.25
2018-03-03T08:41:39.763Z,51.75
2018-03-03T08:44:07.504Z,43.42
2018-03-03T08:46:35.321Z,66.07
2018-03-03T08:49:03.069Z,43.08
2018-03-03T08:51:30.835Z,51.83
2018-03-03T08:53:58.645Z,52.20
2018-03-03T08:56:26.402Z,48.20
2018-03-03T08:58:54.154Z,49.08
2018-03-03T09:01:22.728Z,48.33
2018-03-03T09:03:51.246Z,42.65
2018-03-03T09:06:19.000Z,39.55
2018-03-03T09:08:46.806Z,49.47
2018-03-03T09:11:14.554Z,34.40
2018-03-03T09:13:42.313Z,36.15
2018-03-03T09:16:10.144Z,36.63
2018-03-03T09:18:37.905Z,44.45
2018-03-03T09:21:05.665Z,40.12
2018-03-03T09:23:33.466Z,42.92
2018-03-03T09:26:01.214Z,43.53
2018-03-03T09:28:28.967Z,42.22
2018-03-03T09:30:56.775Z,43.33
2018-03-03T09:33:24.529Z,34.60
2018-03-03T09:35:52.283Z,40.90
2018-03-03T09:38:20.083Z,29.87
2018-03-03T09:40:48.605Z,36.45
2018-03-03T09:43:16.376Z,41.40
2018-03-03T09:45:44.209Z,43.55
2018-03-03T09:48:12.021Z,51.72
2018-03-03T09:50:39.770Z,39.08
2018-03-03T09:53:07.576Z,46.78
2018-03-03T09:55:35.334Z,39.15
2018-03-03T09:58:03.860Z,35.83
2018-03-03T10:00:31.672Z,34.30
2018-03-03T10:03:00.200Z,37.90
2018-03-03T10:05:27.976Z,45.78
2018-03-03T10:07:55.961Z,40.40
2018-03-03T10:10:23.726Z,40.75
2018-03-03T10:12:51.474Z,42.03
2018-03-03T10:15:19.278Z,40.03
2018-03-03T10:17:47.030Z,37.55
2018-03-03T10:20:15.563Z,40.10
2018-03-03T10:22:43.381Z,40.70
2018-03-03T10:25:11.130Z,40.10
2018-03-03T10:27:39.671Z,48.80
2018-03-03T10:30:07.481Z,33.08
2018-03-03T10:32:35.243Z,32.63
2018-03-03T10:35:03.793Z,37.33
2018-03-03T10:37:31.600Z,19.45
2018-03-03T10:39:59.350Z,28.73
2018-03-03T10:42:27.868Z,25.35
2018-03-03T10:44:55.666Z,27.83
2018-03-03T10:47:23.490Z,29.67
2018-03-03T10:49:52.025Z,27.55
2018-03-03T10:52:20.589Z,28.20
2018-03-03T10:54:48.336Z,33.08
2018-03-03T10:57:16.092Z,35.92
2018-03-03T10:59:43.891Z,28.48
2018-03-03T11:02:12.409Z,31.75
2018-03-03T11:04:40.171Z,27.87
2018-03-03T11:07:07.988Z,26.85
2018-03-03T11:09:36.506Z,33.55
2018-03-03T11:12:04.261Z,27.35
2018-03-03T11:14:32.065Z,33.83
2018-03-03T11:16:59.824Z,30.67
2018-03-03T11:19:27.569Z,34.67
2018-03-03T11:21:55.381Z,37.20
2018-03-03T11:24:23.152Z,22.42
2018-03-03T11:26:51.671Z,30.90
2018-03-03T11:29:19.477Z,34.10
2018-03-03T11:31:47.228Z,28.73
2018-03-03T11:34:15.000Z,32.00
2018-03-03T11:36:43.582Z,30.23
2018-03-03T11:39:11.328Z,31.55
2018-03-03T11:41:39.088Z,32.75
2018-03-03T11:44:06.897Z,38.20
2018-03-03T11:46:34.654Z,36.72
2018-03-03T11:49:02.416Z,31.52
2018-03-03T11:51:30.217Z,38.38
2018-03-03T11:53:57.967Z,34.80
2018-03-03T11:56:25.735Z,29.92
2018-03-03T11:58:53.540Z,27.27
2018-03-03T12:01:23.532Z,28.42
2018-03-03T12:03:51.659Z,27.45
2018-03-03T12:06:19.476Z,22.45
2018-03-03T12:08:47.228Z,31.30
2018-03-03T12:11:14.992Z,27.80
2018-03-03T12:13:42.822Z,27.55
2018-03-03T12:16:10.581Z,24.45
2018-03-03T12:18:38.334Z,27.40
2018-03-03T12:21:06.165Z,25.95
2018-03-03T12:23:34.676Z,23.62
2018-03-03T12:26:02.429Z,21.98
2018-03-03T12:28:30.236Z,31.65
2018-03-03T12:30:57.997Z,19.30
2018-03-03T12:33:25.750Z,20.27
2018-03-03T12:35:54.326Z,24.48
2018-03-03T12:38:22.081Z,28.52
2018-03-03T12:40:49.830Z,22.35
2018-03-03T12:43:17.630Z,23.85
2018-03-03T12:45:45.388Z,19.48
2018-03-03T12:48:13.148Z,29.60
2018-03-03T12:50:40.962Z,20.67
2018-03-03T12:53:08.779Z,27.80
2018-03-03T12:55:36.529Z,19.35
2018-03-03T12:58:04.363Z,25.88
2018-03-03T13:00:32.138Z,26.73
2018-03-03T13:02:59.889Z,16.17
2018-03-03T13:05:27.690Z,18.67
2018-03-03T13:07:55.443Z,28.42
2018-03-03T13:10:26.848Z,27.95
2018-03-03T13:12:57.912Z,22.08
2018-03-03T13:15:25.658Z,23.12
2018-03-03T13:17:53.477Z,17.48
2018-03-03T13:20:22.148Z,24.10
2018-03-03T13:22:50.746Z,23.85
2018-03-03T13:25:18.502Z,21.85
2018-03-03T13:27:46.308Z,21.65
2018-03-03T13:30:14.067Z,24.60
2018-03-03T13:32:41.892Z,23.00
2018-03-03T13:35:11.204Z,22.17
2018-03-03T13:37:39.810Z,20.77
2018-03-03T13:40:07.570Z,20.17
2018-03-03T13:42:35.372Z,17.92
2018-03-03T13:45:03.118Z,17.25
2018-03-03T13:47:30.875Z,22.80
2018-03-03T13:49:58.692Z,24.15
2018-03-03T13:52:27.242Z,25.98
2018-03-03T13:54:54.989Z,20.30
2018-03-03T13:57:22.792Z,24.37
2018-03-03T13:59:50.548Z,20.95
2018-03-03T14:02:18.293Z,21.50
2018-03-03T14:04:46.122Z,34.22
2018-03-03T14:07:13.892Z,21.85
2018-03-03T14:09:41.645Z,25.00
2018-03-03T14:12:09.463Z,19.23
2018-03-03T14:14:37.982Z,21.70
2018-03-03T14:17:05.746Z,23.65
2018-03-03T14:19:33.560Z,16.50
2018-03-03T14:22:01.318Z,20.80
2018-03-03T14:24:29.068Z,20.55
2018-03-03T14:26:56.893Z,23.70
2018-03-03T14:29:24.633Z,25.75
2018-03-03T14:31:53.154Z,22.25
2018-03-03T14:34:20.960Z,22.65
2018-03-03T14:36:49.504Z,18.90
2018-03-03T14:39:17.254Z,18.90
2018-03-03T14:41:45.061Z,16.50
2018-03-03T14:44:12.805Z,17.77
2018-03-03T14:46:40.588Z,26.33
2018-03-03T14:49:09.162Z,19.77
2018-03-03T14:51:36.916Z,19.12
2018-03-03T14:54:04.724Z,20.85
2018-03-03T14:56:32.565Z,21.70
2018-03-03T14:59:01.114Z,23.65
2018-03-03T15:01:28.877Z,22.62
2018-03-03T15:03:56.682Z,17.83
2018-03-03T15:06:24.442Z,21.15
2018-03-03T15:08:52.200Z,26.80
2018-03-03T15:11:20.778Z,26.83
2018-03-03T15:13:49.288Z,23.70
2018-03-03T15:16:17.041Z,22.83
2018-03-03T15:18:44.845Z,28.48
2018-03-03T15:21:12.597Z,25.50
2018-03-03T15:23:40.346Z,23.30
2018-03-03T15:26:08.151Z,25.55
2018-03-03T15:28:38.084Z,26.45
2018-03-03T15:31:12.352Z,24.80
2018-03-03T15:33:41.957Z,17.50
2018-03-03T15:36:13.200Z,23.23
2018-03-03T15:38:41.283Z,21.77
2018-03-03T15:41:09.030Z,23.45
2018-03-03T15:43:36.832Z,23.67
2018-03-03T15:46:05.358Z,29.37
2018-03-03T15:48:33.120Z,18.17
2018-03-03T15:51:01.513Z,33.78
2018-03-03T15:53:30.378Z,23.85
2018-03-03T15:55:58.417Z,27.30
2018-03-03T15:58:26.258Z,24.30
2018-03-03T16:00:54.057Z,25.35
2018-03-03T16:03:21.834Z,30.67
2018-03-03T16:05:49.675Z,23.02
2018-03-03T16:08:17.429Z,25.50
2018-03-03T16:10:45.178Z,22.65
2018-03-03T16:13:13.736Z,17.33
2018-03-03T16:15:41.499Z,19.80
2018-03-03T16:18:09.246Z,20.48
2018-03-03T16:20:37.057Z,27.25
2018-03-03T16:23:04.808Z,23.12
2018-03-03T16:25:33.333Z,25.55
2018-03-03T16:28:01.968Z,31.08
2018-03-03T16:30:29.766Z,21.92
2018-03-03T16:32:57.525Z,30.20
2018-03-03T16:35:25.386Z,30.17
2018-03-03T16:37:53.199Z,31.12
2018-03-03T16:40:20.971Z,26.50
2018-03-03T16:42:49.572Z,24.45
2018-03-03T16:45:17.403Z,31.30
2018-03-03T16:47:45.164Z,23.67
2018-03-03T16:50:13.047Z,22.50
2018-03-03T16:52:41.591Z,28.10
2018-03-03T16:55:09.344Z,27.92
2018-03-03T16:57:38.241Z,23.92
2018-03-03T17:00:06.011Z,28.12
2018-03-03T17:02:33.802Z,28.58
2018-03-03T17:05:02.379Z,29.92
2018-03-03T17:07:30.896Z,28.58
2018-03-03T17:09:58.645Z,27.77
2018-03-03T17:12:26.455Z,33.53
2018-03-03T17:14:54.208Z,33.22
2018-03-03T17:17:28.068Z,29.10
2018-03-03T17:19:55.896Z,38.80
2018-03-03T17:22:23.676Z,30.40
2018-03-03T17:24:52.189Z,39.92
2018-03-03T17:27:20.001Z,46.08
2018-03-03T17:29:47.754Z,41.00
2018-03-03T17:32:15.573Z,36.70
2018-03-03T17:34:43.408Z,37.65
2018-03-03T17:37:11.928Z,43.05
2018-03-03T17:39:39.681Z,40.90
2018-03-03T17:42:07.582Z,40.63
2018-03-03T17:44:35.388Z,42.15
2018-03-03T17:47:03.168Z,42.38
2018-03-03T17:49:33.444Z,40.53
2018-03-03T17:52:01.200Z,46.00
2018-03-03T17:54:28.950Z,37.78
2018-03-03T17:56:56.750Z,51.05
2018-03-03T17:59:25.271Z,49.17
2018-03-03T18:01:53.041Z,49.63
2018-03-03T18:04:20.845Z,34.28
2018-03-03T18:06:49.388Z,44.13
2018-03-03T18:09:17.908Z,35.45
2018-03-03T18:11:58.269Z,46.35
2018-03-03T18:14:26.801Z,47.97
2018-03-03T18:16:55.335Z,35.30
2018-03-03T18:19:34.419Z,38.97
2018-03-03T18:22:02.181Z,41.33
2018-03-03T18:24:35.828Z,52.55
2018-03-03T18:27:03.593Z,42.85
2018-03-03T18:29:31.348Z,32.78
2018-03-03T18:31:59.152Z,64.72
2018-03-03T18:34:26.901Z,50.40
2018-03-03T18:36:54.665Z,54.05
2018-03-03T18:39:22.476Z,56.17
2018-03-03T18:41:50.991Z,57.38
2018-03-03T18:44:22.619Z,53.13
2018-03-03T18:46:51.252Z,44.42
2018-03-03T18:49:19.001Z,43.83
2018-03-03T18:51:46.772Z,62.92
2018-03-03T18:54:14.684Z,48.78
2018-03-03T18:56:42.517Z,51.55
2018-03-03T18:59:10.455Z,52.03
2018-03-03T19:01:38.270Z,38.80
2018-03-03T19:04:06.798Z,105.30
2018-03-03T19:06:34.570Z,79.15
2018-03-03T19:09:02.689Z,57.42
2018-03-03T19:11:31.285Z,44.15
2018-03-03T19:13:59.069Z,42.30
2018-03-03T19:16:26.878Z,42.95
2018-03-03T19:18:54.635Z,40.85
2018-03-03T19:21:22.412Z,35.10
2018-03-03T19:23:50.216Z,45.60
2018-03-03T19:26:18.001Z,40.92
2018-03-03T19:28:45.815Z,40.95
2018-03-03T19:31:13.643Z,41.65
2018-03-03T19:33:41.402Z,46.15
2018-03-03T19:36:09.169Z,29.67
2018-03-03T19:38:37.775Z,42.58
2018-03-03T19:41:06.297Z,44.42
2018-03-03T19:43:34.087Z,33.65
2018-03-03T19:46:01.934Z,47.38
2018-03-03T19:48:29.697Z,40.90
2018-03-03T19:50:57.450Z,33.30
2018-03-03T19:53:25.255Z,52.50
2018-03-03T19:55:53.811Z,36.95
2018-03-03T19:58:22.447Z,48.38
2018-03-03T20:00:50.279Z,56.83
2018-03-03T20:03:18.159Z,40.42
2018-03-03T20:05:46.972Z,53.65
2018-03-03T20:13:28.486Z,56.10
2018-03-03T20:15:56.405Z,49.90
2018-03-03T20:18:25.787Z,46.75
2018-03-03T20:20:53.761Z,45.38
2018-03-03T20:23:21.754Z,51.22
2018-03-03T20:25:50.501Z,60.80
2018-03-03T20:28:19.608Z,50.72
2018-03-03T20:30:48.189Z,50.25
2018-03-03T20:33:16.066Z,54.80
2018-03-03T20:35:43.976Z,51.37
2018-03-03T20:38:11.797Z,51.10
2018-03-03T20:40:40.556Z,51.25
2018-03-03T20:43:08.485Z,54.97
2018-03-03T20:45:36.348Z,45.65
2018-03-03T20:48:04.114Z,52.75
2018-03-03T20:50:32.358Z,51.35
2018-03-03T20:53:00.953Z,38.42
2018-03-03T20:55:28.746Z,52.85
2018-03-03T20:57:56.586Z,49.45
2018-03-03T21:00:24.449Z,46.55
2018-03-03T21:02:52.286Z,55.25
2018-03-03T21:05:20.935Z,55.38
2018-03-03T21:07:48.730Z,50.22
2018-03-03T21:10:17.345Z,70.40
2018-03-03T21:12:47.817Z,64.05
2018-03-03T21:15:15.576Z,54.53
2018-03-03T21:17:43.354Z,48.17
2018-03-03T21:20:12.000Z,50.53
2018-03-03T21:22:39.767Z,50.30
2018-03-03T21:25:07.544Z,53.45
2018-03-03T21:27:35.447Z,54.30
2018-03-03T21:30:03.254Z,46.65
2018-03-03T21:32:31.055Z,50.22
2018-03-03T21:34:59.775Z,49.40
2018-03-03T21:37:27.566Z,45.10
2018-03-03T21:39:55.368Z,53.28
2018-03-03T21:42:24.058Z,75.37
2018-03-03T21:44:52.589Z,72.05
2018-03-03T21:47:20.348Z,62.30
2018-03-03T21:49:48.243Z,60.22
2018-03-03T21:52:16.837Z,54.30
2018-03-03T21:54:44.684Z,47.08
2018-03-03T21:57:12.513Z,53.65
2018-03-03T21:59:40.267Z,51.75
2018-03-03T22:02:08.054Z,49.05
2018-03-03T22:04:35.867Z,58.42
2018-03-03T22:07:03.618Z,63.92
2018-03-03T22:09:32.209Z,74.78
2018-03-03T22:12:00.025Z,58.87
2018-03-03T22:14:28.295Z,55.03
2018-03-03T22:16:56.091Z,67.03
2018-03-03T22:19:24.666Z,57.67
2018-03-03T22:21:52.458Z,67.85
2018-03-03T22:24:20.242Z,64.37
2018-03-03T22:26:48.219Z,66.50
2018-03-03T22:29:15.887Z,65.47
2018-03-03T22:31:43.654Z,76.20
2018-03-03T22:34:11.486Z,81.63
2018-03-03T22:36:39.262Z,61.30
2018-03-03T22:39:07.018Z,58.38
2018-03-03T22:41:34.863Z,67.95
2018-03-03T22:44:02.629Z,56.33
2018-03-03T22:46:30.421Z,54.53
2018-03-03T22:48:58.244Z,58.20
2018-03-03T22:51:26.003Z,60.03
2018-03-03T22:53:53.775Z,61.60
2018-03-03T22:56:21.650Z,69.15
2018-03-03T22:58:49.401Z,60.25
2018-03-03T23:01:17.196Z,60.10
2018-03-03T23:03:45.011Z,65.85
2018-03-03T23:06:13.528Z,59.78
2018-03-03T23:08:41.297Z,65.35
2018-03-03T23:11:09.117Z,65.85
2018-03-03T23:13:36.865Z,64.85
2018-03-03T23:16:05.402Z,79.15
2018-03-03T23:18:33.216Z,57.62
2018-03-03T23:21:01.728Z,56.40
2018-03-03T23:23:29.490Z,56.05
2018-03-03T23:25:57.302Z,62.15
2018-03-03T23:28:25.058Z,54.08
2018-03-03T23:30:52.810Z,60.85
2018-03-03T23:33:20.618Z,65.93
2018-03-03T23:35:48.364Z,47.50
2018-03-03T23:38:16.890Z,49.60
2018-03-03T23:40:44.718Z,63.33
2018-03-03T23:43:12.486Z,48.80
2018-03-03T23:45:40.272Z,43.72
2018-03-03T23:48:08.080Z,64.57
2018-03-03T23:50:35.838Z,56.00
2018-03-03T23:53:03.590Z,53.92
2018-03-03T23:55:31.390Z,56.28
2018-03-03T23:57:59.153Z,51.15
